Time;durP1;ratioP1;P1;durP2;ratioP2;P2;SDS_P1;SDS_P2;PMS_P1;PMS_P2;Temp;Humidity;BMP_temperature;BMP_pressure;BME280_temperature;BME280_humidity;BME280_pressure;Samples;Min_cycle;Max_cycle;Signal;HPM_P1;HPM_P2
2023/02/13 00:02:26;;;;;;;41.67;24.10;;;;;6.30;100444.00;;;;5079128;28;20436;-62
2023/02/13 00:04:52;;;;;;;36.03;22.13;;;;;6.30;100445.00;;;;5080607;28;20090;-62
2023/02/13 00:07:19;;;;;;;36.72;23.02;;;;;6.20;100446.00;;;;5074987;28;20051;-62
2023/02/13 00:09:45;;;;;;;40.00;23.23;;;;;6.20;100447.00;;;;5074754;28;20558;-62
2023/02/13 00:12:12;;;;;;;40.75;23.55;;;;;6.30;100439.00;;;;5073552;28;20489;-62
2023/02/13 00:14:39;;;;;;;37.80;22.27;;;;;6.40;100444.00;;;;5074110;28;20044;-63
2023/02/13 00:17:05;;;;;;;38.17;23.20;;;;;6.40;100437.00;;;;5074873;28;20102;-62
2023/02/13 00:19:32;;;;;;;40.05;22.92;;;;;6.40;100436.00;;;;5074649;28;20048;-62
2023/02/13 00:21:59;;;;;;;36.05;21.75;;;;;6.30;100441.00;;;;5074544;28;20081;-64
2023/02/13 00:24:25;;;;;;;37.28;22.27;;;;;6.30;100433.00;;;;5073647;28;20044;-64
2023/02/13 00:26:52;;;;;;;34.10;21.48;;;;;6.30;100439.00;;;;5074292;28;20098;-63
2023/02/13 00:29:18;;;;;;;34.50;22.08;;;;;6.30;100440.00;;;;5074742;28;20389;-62
2023/02/13 00:31:45;;;;;;;33.80;21.30;;;;;6.20;100430.00;;;;5073180;28;20135;-63
2023/02/13 00:34:12;;;;;;;33.10;22.48;;;;;6.20;100433.00;;;;5074553;28;20408;-63
2023/02/13 00:36:39;;;;;;;35.47;22.05;;;;;6.20;100437.00;;;;5073129;28;20048;-64
2023/02/13 00:39:05;;;;;;;35.92;21.83;;;;;6.20;100434.00;;;;5074060;28;20045;-64
2023/02/13 00:41:32;;;;;;;34.42;22.10;;;;;6.10;100445.00;;;;5074173;28;20060;-63
2023/02/13 00:43:58;;;;;;;37.60;21.75;;;;;6.10;100441.00;;;;5074097;28;20062;-63
2023/02/13 00:46:25;;;;;;;38.47;22.63;;;;;6.10;100444.00;;;;5073537;28;20086;-63
2023/02/13 00:48:52;;;;;;;35.22;21.77;;;;;6.10;100440.00;;;;5072712;28;20454;-64
2023/02/13 00:51:18;;;;;;;35.47;20.80;;;;;6.10;100432.00;;;;5073836;28;20044;-62
2023/02/13 00:53:45;;;;;;;30.40;20.02;;;;;6.00;100443.00;;;;5073637;28;20562;-63
2023/02/13 00:56:13;;;;;;;36.25;21.88;;;;;6.00;100442.00;;;;5071908;28;20044;-63
2023/02/13 00:58:43;;;;;;;31.08;20.20;;;;;6.00;100443.00;;;;5073829;28;20041;-63
2023/02/13 01:01:10;;;;;;;32.05;19.83;;;;;6.00;100438.00;;;;5073880;28;20068;-64
2023/02/13 01:03:37;;;;;;;31.17;19.52;;;;;6.00;100444.00;;;;5072632;28;20044;-63
2023/02/13 01:06:04;;;;;;;32.05;19.67;;;;;6.00;100439.00;;;;5072010;28;20064;-64
2023/02/13 01:08:31;;;;;;;29.33;18.95;;;;;6.00;100438.00;;;;5073765;28;20032;-62
2023/02/13 01:10:58;;;;;;;33.22;19.88;;;;;6.00;100435.00;;;;5072084;28;20582;-64
2023/02/13 01:13:25;;;;;;;31.90;19.25;;;;;6.00;100440.00;;;;5073404;28;20044;-63
2023/02/13 01:15:52;;;;;;;30.48;18.25;;;;;6.00;100438.00;;;;5073039;28;20048;-64
2023/02/13 01:18:19;;;;;;;29.90;18.27;;;;;6.10;100430.00;;;;5072353;28;20147;-64
2023/02/13 01:20:59;;;;;;;31.27;18.80;;;;;6.20;100448.00;;;;5072153;28;20094;-63
2023/02/13 01:23:33;;;;;;;32.67;19.05;;;;;6.20;100442.00;;;;5073529;28;20076;-63
2023/02/13 01:25:59;;;;;;;28.83;18.80;;;;;6.10;100447.00;;;;5072800;28;20040;-63
2023/02/13 01:28:26;;;;;;;29.45;19.13;;;;;6.10;100456.00;;;;5072032;28;20771;-63
2023/02/13 01:30:56;;;;;;;31.60;19.98;;;;;6.00;100447.00;;;;5074486;28;20060;-63
2023/02/13 01:33:25;;;;;;;34.05;21.02;;;;;5.90;100447.00;;;;5076433;28;20082;-63
2023/02/13 01:35:52;;;;;;;30.63;19.08;;;;;5.90;100447.00;;;;5073805;28;20071;-63
2023/02/13 01:38:19;;;;;;;31.77;18.63;;;;;5.90;100446.00;;;;5075709;28;20049;-63
2023/02/13 01:40:48;;;;;;;33.22;19.42;;;;;5.90;100434.00;;;;5076209;28;20048;-63
2023/02/13 01:43:16;;;;;;;31.05;20.20;;;;;5.80;100444.00;;;;5075912;28;20501;-63
2023/02/13 01:45:45;;;;;;;33.92;20.42;;;;;5.80;100441.00;;;;5075187;28;20049;-63
2023/02/13 01:48:21;;;;;;;29.38;19.10;;;;;5.80;100431.00;;;;5075322;28;20053;-62
2023/02/13 01:50:56;;;;;;;33.50;19.95;;;;;5.70;100442.00;;;;5077178;28;20040;-64
2023/02/13 01:53:30;;;;;;;31.98;19.65;;;;;5.60;100435.00;;;;5075611;28;20036;-62
2023/02/13 01:56:13;;;;;;;31.17;18.70;;;;;5.60;100442.00;;;;5073929;28;20150;-61
2023/02/13 01:58:44;;;;;;;28.23;17.83;;;;;5.50;100431.00;;;;5075253;28;20064;-61
2023/02/13 02:01:11;;;;;;;29.65;17.40;;;;;5.60;100432.00;;;;5073479;28;20049;-61
2023/02/13 02:03:46;;;;;;;29.05;18.27;;;;;5.60;100427.00;;;;5074820;28;20051;-62
2023/02/13 02:06:25;;;;;;;28.40;17.70;;;;;5.50;100426.00;;;;5072447;28;20094;-63
2023/02/13 02:08:54;;;;;;;29.33;18.02;;;;;5.50;100427.00;;;;5072971;28;20386;-62
2023/02/13 02:11:35;;;;;;;28.52;17.92;;;;;5.50;100423.00;;;;5074463;28;20040;-62
2023/02/13 02:14:03;;;;;;;26.92;17.15;;;;;5.60;100426.00;;;;5072966;28;20487;-61
2023/02/13 02:16:32;;;;;;;28.38;17.15;;;;;5.60;100423.00;;;;5073433;28;20088;-62
2023/02/13 02:19:03;;;;;;;27.67;17.27;;;;;5.70;100429.00;;;;5073066;28;20040;-62
2023/02/13 02:21:49;;;;;;;28.83;17.92;;;;;5.70;100422.00;;;;5071748;28;20570;-62
2023/02/13 02:24:55;;;;;;;34.92;19.15;;;;;5.80;100430.00;;;;5071604;28;20076;-63
2023/02/13 02:27:52;;;;;;;31.17;17.30;;;;;5.80;100430.00;;;;5070954;28;20040;-62
2023/02/13 02:30:57;;;;;;;35.63;19.67;;;;;5.80;100428.00;;;;5070979;28;20065;-64
2023/02/13 02:33:35;;;;;;;31.02;19.17;;;;;5.70;100425.00;;;;5070701;28;20048;-63
2023/02/13 02:36:11;;;;;;;30.90;18.17;;;;;5.50;100416.00;;;;5070415;28;20051;-62
2023/02/13 02:39:09;;;;;;;33.28;19.73;;;;;5.40;100416.00;;;;5071030;28;20068;-62
2023/02/13 02:42:00;;;;;;;34.80;19.63;;;;;5.30;100412.00;;;;5070906;28;20405;-63
2023/02/13 02:44:32;;;;;;;34.67;19.45;;;;;5.30;100413.00;;;;5070093;28;20433;-62
2023/02/13 02:50:23;;;;;;;31.50;18.48;;;;;5.40;100416.00;;;;5070519;28;20524;-61
2023/02/13 02:52:56;;;;;;;37.97;20.73;;;;;5.30;100416.00;;;;5071844;28;20049;-62
2023/02/13 02:55:45;;;;;;;36.08;19.23;;;;;5.30;100416.00;;;;5053928;28;20056;-62
2023/02/13 03:06:56;;;;;;;32.63;18.77;;;;;5.50;100421.00;;;;5071634;28;20443;-62
2023/02/13 03:15:13;;;;;;;31.58;18.23;;;;;5.50;100423.00;;;;5071095;28;20041;-62
2023/02/13 03:23:34;;;;;;;32.45;18.95;;;;;5.50;100428.00;;;;5071637;28;20083;-61
2023/02/13 03:26:44;;;;;;;32.63;18.50;;;;;5.50;100437.00;;;;5070878;28;20396;-61
2023/02/13 03:32:29;;;;;;;30.73;18.33;;;;;5.40;100421.00;;;;5071935;28;20048;-61
2023/02/13 03:38:29;;;;;;;27.85;16.50;;;;;5.20;100423.00;;;;5075244;28;20094;-60
2023/02/13 03:41:19;;;;;;;30.42;17.25;;;;;5.10;100414.00;;;;5074413;28;20054;-62
2023/02/13 03:43:57;;;;;;;31.15;17.10;;;;;5.00;100420.00;;;;5075738;28;20131;-60
2023/02/13 03:46:26;;;;;;;28.80;16.90;;;;;4.90;100414.00;;;;5074864;28;20048;-60
2023/02/13 03:51:50;;;;;;;27.10;15.90;;;;;4.90;100426.00;;;;5075088;28;20044;-60
2023/02/13 03:59:57;;;;;;;25.02;15.90;;;;;4.80;100420.00;;;;5075021;28;20048;-61
2023/02/13 04:02:29;;;;;;;26.63;15.48;;;;;4.80;100419.00;;;;5079830;28;20501;-62
2023/02/13 04:05:07;;;;;;;25.77;15.48;;;;;4.70;100425.00;;;;5084624;28;20044;-62
2023/02/13 04:07:34;;;;;;;27.77;15.95;;;;;4.60;100421.00;;;;5080136;28;20037;-62
2023/02/13 04:10:10;;;;;;;28.90;15.75;;;;;4.70;100426.00;;;;5073562;28;20040;-64
2023/02/13 04:12:55;;;;;;;24.50;15.68;;;;;4.60;100419.00;;;;5074523;28;20094;-63
2023/02/13 04:15:42;;;;;;;27.02;15.05;;;;;4.70;100419.00;;;;5072842;28;20044;-63
2023/02/13 04:18:14;;;;;;;25.33;15.27;;;;;4.70;100428.00;;;;5073287;28;20044;-63
2023/02/13 04:20:41;;;;;;;25.77;15.48;;;;;4.70;100434.00;;;;5074645;28;20497;-63
2023/02/13 04:23:10;;;;;;;25.98;15.80;;;;;4.70;100429.00;;;;5073167;28;20040;-64
2023/02/13 04:25:40;;;;;;;23.77;15.40;;;;;4.70;100432.00;;;;5073525;28;20086;-63
2023/02/13 04:28:07;;;;;;;28.63;15.65;;;;;4.80;100433.00;;;;5074166;28;20044;-64
2023/02/13 04:30:33;;;;;;;28.33;15.82;;;;;4.80;100429.00;;;;5074372;28;20074;-63
2023/02/13 04:33:00;;;;;;;29.02;16.67;;;;;4.90;100430.00;;;;5074301;28;20036;-64
2023/02/13 04:35:27;;;;;;;26.15;15.48;;;;;5.00;100429.00;;;;5073605;28;20127;-62
2023/02/13 04:37:53;;;;;;;30.20;16.23;;;;;4.90;100423.00;;;;5074110;28;20047;-63
2023/02/13 04:40:20;;;;;;;29.85;16.15;;;;;5.00;100432.00;;;;5074069;28;20059;-63
2023/02/13 04:42:48;;;;;;;27.88;16.08;;;;;4.90;100428.00;;;;5073812;28;20556;-63
2023/02/13 04:45:15;;;;;;;28.17;16.23;;;;;4.90;100421.00;;;;5072516;28;20044;-63
2023/02/13 04:47:42;;;;;;;24.83;14.73;;;;;4.90;100427.00;;;;5074102;28;20060;-63
2023/02/13 04:50:09;;;;;;;22.83;14.52;;;;;4.90;100424.00;;;;5074204;28;20048;-63
2023/02/13 04:52:35;;;;;;;27.02;15.90;;;;;5.00;100429.00;;;;5074100;28;20049;-62
2023/02/13 04:55:01;;;;;;;24.10;14.93;;;;;5.00;100418.00;;;;5073833;28;20393;-62
2023/02/13 04:57:28;;;;;;;31.48;18.15;;;;;5.00;100422.00;;;;5073970;28;20043;-63
2023/02/13 04:59:55;;;;;;;31.35;16.95;;;;;4.90;100414.00;;;;5074081;28;20048;-63
2023/02/13 05:02:21;;;;;;;24.08;15.02;;;;;4.80;100410.00;;;;5074225;28;20040;-64
2023/02/13 05:04:48;;;;;;;27.90;16.33;;;;;4.60;100421.00;;;;5073530;28;20044;-63
2023/02/13 05:07:14;;;;;;;23.80;14.38;;;;;4.70;100421.00;;;;5073688;28;20072;-63
2023/02/13 05:09:41;;;;;;;27.75;14.27;;;;;4.70;100425.00;;;;5072332;28;20048;-63
2023/02/13 05:12:07;;;;;;;24.92;14.88;;;;;4.70;100417.00;;;;5073382;28;20055;-63
2023/02/13 05:14:34;;;;;;;22.27;13.77;;;;;4.70;100426.00;;;;5071647;28;20079;-62
2023/02/13 05:17:00;;;;;;;23.17;14.27;;;;;4.70;100415.00;;;;5073432;28;20089;-62
2023/02/13 05:19:27;;;;;;;26.60;15.10;;;;;4.60;100420.00;;;;5073509;28;20041;-61
2023/02/13 05:24:38;;;;;;;22.75;13.93;;;;;4.60;100426.00;;;;5072506;28;20052;-61
2023/02/13 05:27:05;;;;;;;25.33;13.75;;;;;4.50;100418.00;;;;5073334;28;20045;-63
2023/02/13 05:29:31;;;;;;;24.83;14.63;;;;;4.60;100421.00;;;;5073076;28;20037;-63
2023/02/13 05:32:01;;;;;;;22.73;14.10;;;;;4.60;100423.00;;;;5073288;28;20105;-63
2023/02/13 05:34:28;;;;;;;27.08;15.40;;;;;4.70;100424.00;;;;5072572;28;20047;-63
2023/02/13 05:36:55;;;;;;;23.58;14.35;;;;;4.60;100420.00;;;;5071827;28;20044;-63
2023/02/13 05:39:21;;;;;;;24.30;14.25;;;;;4.60;100427.00;;;;5073579;28;20045;-63
2023/02/13 05:41:48;;;;;;;26.02;15.38;;;;;4.60;100421.00;;;;5073128;28;20485;-63
2023/02/13 05:44:15;;;;;;;23.13;14.38;;;;;4.60;100416.00;;;;5072636;28;20040;-63
2023/02/13 05:46:43;;;;;;;24.52;13.38;;;;;4.50;100417.00;;;;5072848;28;20094;-63
2023/02/13 05:49:12;;;;;;;25.65;13.70;;;;;4.50;100422.00;;;;5072884;28;20074;-64
2023/02/13 05:51:38;;;;;;;30.27;16.02;;;;;4.40;100412.00;;;;5071532;28;20485;-64
2023/02/13 05:54:04;;;;;;;34.42;15.65;;;;;4.30;100417.00;;;;5072499;28;20346;-63
2023/02/13 05:56:31;;;;;;;29.63;16.80;;;;;4.30;100408.00;;;;5072856;28;20055;-63
2023/02/13 05:58:58;;;;;;;29.05;15.15;;;;;4.40;100411.00;;;;5072969;28;20036;-63
2023/02/13 06:01:25;;;;;;;25.67;13.93;;;;;4.40;100414.00;;;;5072750;28;20045;-64
2023/02/13 06:03:51;;;;;;;26.10;15.40;;;;;4.30;100411.00;;;;5072516;28;20078;-62
2023/02/13 06:06:18;;;;;;;25.00;14.05;;;;;4.30;100411.00;;;;5071831;28;20083;-62
2023/02/13 06:08:45;;;;;;;28.98;15.27;;;;;4.10;100412.00;;;;5072561;28;20040;-60
2023/02/13 06:11:11;;;;;;;23.17;13.75;;;;;4.10;100419.00;;;;5072531;28;20052;-60
2023/02/13 06:13:39;;;;;;;26.08;15.07;;;;;4.20;100424.00;;;;5072342;28;20044;-61
2023/02/13 06:16:10;;;;;;;25.42;14.40;;;;;4.20;100420.00;;;;5072281;28;20123;-62
2023/02/13 06:18:37;;;;;;;28.02;14.80;;;;;4.20;100417.00;;;;5072718;28;20045;-61
2023/02/13 06:21:05;;;;;;;27.10;14.10;;;;;4.10;100423.00;;;;5072378;28;20055;-62
2023/02/13 06:23:32;;;;;;;25.92;14.45;;;;;4.00;100417.00;;;;5072813;28;20437;-61
2023/02/13 06:26:06;;;;;;;26.33;15.48;;;;;4.00;100420.00;;;;5071626;28;20516;-61
2023/02/13 06:28:33;;;;;;;24.13;14.15;;;;;4.10;100416.00;;;;5071065;28;20044;-61
2023/02/13 06:31:00;;;;;;;30.00;14.82;;;;;4.10;100418.00;;;;5072130;28;20086;-64
2023/02/13 06:33:27;;;;;;;34.83;15.40;;;;;4.00;100419.00;;;;5072113;28;20052;-62
2023/02/13 06:35:53;;;;;;;39.53;15.80;;;;;3.80;100422.00;;;;5070675;28;20045;-62
2023/02/13 06:38:20;;;;;;;29.45;16.13;;;;;3.80;100427.00;;;;5072393;28;20033;-62
2023/02/13 06:40:48;;;;;;;29.23;15.02;;;;;3.90;100429.00;;;;5072522;28;20048;-61
2023/02/13 06:43:15;;;;;;;30.73;16.73;;;;;4.00;100425.00;;;;5072011;28;20072;-62
2023/02/13 06:45:42;;;;;;;28.50;16.50;;;;;4.10;100427.00;;;;5071505;28;20047;-62
2023/02/13 06:48:09;;;;;;;29.63;16.38;;;;;4.20;100427.00;;;;5071868;28;20047;-63
2023/02/13 06:50:35;;;;;;;31.52;17.88;;;;;4.10;100430.00;;;;5070640;28;20044;-62
2023/02/13 06:53:02;;;;;;;31.70;16.75;;;;;4.10;100435.00;;;;5071746;28;20045;-62
2023/02/13 06:55:28;;;;;;;28.48;16.90;;;;;3.90;100428.00;;;;5071318;28;20070;-62
2023/02/13 06:57:55;;;;;;;30.40;16.88;;;;;3.90;100440.00;;;;5071800;28;20039;-61
2023/02/13 07:00:22;;;;;;;30.48;16.40;;;;;4.00;100430.00;;;;5071797;28;20045;-62
2023/02/13 07:02:51;;;;;;;27.35;15.30;;;;;4.00;100436.00;;;;5071049;28;20049;-61
2023/02/13 07:05:18;;;;;;;22.27;14.55;;;;;4.00;100435.00;;;;5071185;28;20051;-61
2023/02/13 07:07:44;;;;;;;28.65;15.65;;;;;3.90;100437.00;;;;5072701;28;20487;-61
2023/02/13 07:10:12;;;;;;;25.05;14.27;;;;;3.90;100435.00;;;;5076217;28;20362;-63
2023/02/13 07:12:39;;;;;;;24.85;14.85;;;;;3.90;100431.00;;;;5074544;28;20139;-62
2023/02/13 07:15:06;;;;;;;23.17;14.07;;;;;3.90;100439.00;;;;5075220;28;20079;-62
2023/02/13 07:17:33;;;;;;;24.45;14.52;;;;;3.90;100434.00;;;;5075880;28;20032;-62
2023/02/13 07:20:00;;;;;;;25.23;15.25;;;;;4.00;100435.00;;;;5075634;28;20427;-62
2023/02/13 07:22:27;;;;;;;24.10;13.73;;;;;4.00;100439.00;;;;5075781;28;20048;-63
2023/02/13 07:24:53;;;;;;;26.73;15.07;;;;;4.00;100445.00;;;;5075131;28;20094;-63
2023/02/13 07:27:20;;;;;;;24.95;14.77;;;;;4.10;100447.00;;;;5075532;28;20040;-62
2023/02/13 07:29:46;;;;;;;23.23;14.15;;;;;4.10;100446.00;;;;5075568;28;20040;-62
2023/02/13 07:32:12;;;;;;;28.65;15.75;;;;;4.10;100444.00;;;;5075606;28;20036;-63
2023/02/13 07:34:39;;;;;;;25.20;14.98;;;;;4.20;100449.00;;;;5074806;28;20044;-64
2023/02/13 07:37:27;;;;;;;28.80;16.48;;;;;4.20;100444.00;;;;5075383;28;20119;-63
2023/02/13 07:39:54;;;;;;;24.73;16.30;;;;;4.40;100449.00;;;;5075286;28;20048;-63
2023/02/13 07:42:20;;;;;;;29.70;17.92;;;;;4.50;100452.00;;;;5075316;28;20048;-61
2023/02/13 07:44:47;;;;;;;30.25;16.70;;;;;4.60;100452.00;;;;5074602;28;20044;-64
2023/02/13 07:47:13;;;;;;;32.55;18.08;;;;;4.70;100457.00;;;;5075113;28;20044;-63
2023/02/13 07:49:40;;;;;;;35.03;19.33;;;;;4.60;100459.00;;;;5075187;28;20045;-64
2023/02/13 07:52:06;;;;;;;43.17;20.30;;;;;4.60;100459.00;;;;5073892;28;20052;-61
2023/02/13 07:54:33;;;;;;;34.70;18.00;;;;;4.60;100455.00;;;;5074429;28;20102;-63
2023/02/13 07:56:59;;;;;;;87.30;20.80;;;;;4.50;100458.00;;;;5075078;28;20028;-62
2023/02/13 07:59:26;;;;;;;40.83;18.35;;;;;4.40;100443.00;;;;5075566;28;20046;-62
2023/02/13 08:01:52;;;;;;;38.63;20.27;;;;;4.50;100442.00;;;;5081433;28;20032;-62
2023/02/13 08:04:19;;;;;;;36.33;18.95;;;;;4.70;100448.00;;;;5088824;28;20087;-63
2023/02/13 08:06:46;;;;;;;35.55;19.75;;;;;4.90;100451.00;;;;5082472;28;20040;-62
2023/02/13 08:12:07;;;;;;;33.85;19.50;;;;;5.30;100451.00;;;;5074957;28;20113;-62
2023/02/13 08:14:34;;;;;;;32.53;18.55;;;;;5.40;100456.00;;;;5074279;28;20044;-62
2023/02/13 08:17:01;;;;;;;33.33;19.42;;;;;5.40;100448.00;;;;5074835;28;20486;-61
2023/02/13 08:19:27;;;;;;;31.52;18.90;;;;;5.50;100454.00;;;;5073243;28;20092;-64
2023/02/13 08:21:54;;;;;;;30.25;18.35;;;;;5.50;100447.00;;;;5075062;28;20048;-61
2023/02/13 08:24:20;;;;;;;31.60;18.27;;;;;5.50;100440.00;;;;5073656;28;20048;-61
2023/02/13 08:26:47;;;;;;;26.75;17.13;;;;;5.40;100450.00;;;;5073532;28;20338;-60
2023/02/13 08:29:14;;;;;;;32.42;19.38;;;;;5.40;100440.00;;;;5074629;28;20036;-62
2023/02/13 08:31:41;;;;;;;29.10;17.85;;;;;5.50;100436.00;;;;5074733;28;20037;-62
2023/02/13 08:34:07;;;;;;;26.50;16.30;;;;;5.50;100452.00;;;;5073599;28;20044;-62
2023/02/13 08:36:34;;;;;;;27.13;17.92;;;;;5.40;100441.00;;;;5073965;28;20048;-63
2023/02/13 08:39:00;;;;;;;29.90;17.67;;;;;5.50;100443.00;;;;5074296;28;20509;-63
2023/02/13 08:41:27;;;;;;;26.08;17.98;;;;;5.50;100439.00;;;;5072991;28;20044;-62
2023/02/13 08:43:54;;;;;;;28.77;18.02;;;;;5.70;100437.00;;;;5074140;28;20051;-62
2023/02/13 08:46:23;;;;;;;33.58;18.33;;;;;5.70;100443.00;;;;5072752;28;20052;-61
2023/02/13 08:48:49;;;;;;;27.75;17.80;;;;;5.80;100436.00;;;;5074295;28;20060;-62
2023/02/13 08:51:16;;;;;;;24.50;16.20;;;;;5.90;100442.00;;;;5072907;28;20040;-62
2023/02/13 08:53:42;;;;;;;26.58;17.08;;;;;5.90;100440.00;;;;5074220;28;20047;-61
2023/02/13 08:56:09;;;;;;;27.50;17.50;;;;;6.00;100439.00;;;;5072428;28;20040;-63
2023/02/13 08:58:36;;;;;;;26.23;17.33;;;;;6.00;100440.00;;;;5072805;28;20048;-62
2023/02/13 09:01:05;;;;;;;26.92;17.48;;;;;6.10;100442.00;;;;5074268;28;20558;-62
2023/02/13 09:03:32;;;;;;;27.77;18.13;;;;;6.20;100433.00;;;;5074050;28;20044;-62
2023/02/13 09:06:00;;;;;;;24.88;16.88;;;;;6.20;100434.00;;;;5072346;28;20052;-62
2023/02/13 09:08:27;;;;;;;26.83;17.42;;;;;6.20;100435.00;;;;5072580;28;20045;-63
2023/02/13 09:10:59;;;;;;;24.38;16.70;;;;;6.20;100438.00;;;;5073757;28;20067;-63
2023/02/13 09:13:28;;;;;;;29.75;18.25;;;;;6.40;100436.00;;;;5073801;28;20063;-62
2023/02/13 09:15:58;;;;;;;26.58;17.23;;;;;6.60;100443.00;;;;5073123;28;20044;-62
2023/02/13 09:18:26;;;;;;;22.88;16.08;;;;;6.80;100438.00;;;;5074097;28;20494;-62
2023/02/13 09:20:58;;;;;;;26.25;17.25;;;;;6.90;100437.00;;;;5074626;28;20098;-61
2023/02/13 09:23:24;;;;;;;24.05;16.40;;;;;7.10;100436.00;;;;5073860;28;20094;-63
2023/02/13 09:25:51;;;;;;;35.65;22.65;;;;;7.20;100440.00;;;;5073603;28;20767;-63
2023/02/13 09:28:17;;;;;;;22.52;15.10;;;;;7.40;100439.00;;;;5073384;28;20041;-64
2023/02/13 09:30:44;;;;;;;23.20;15.38;;;;;7.40;100437.00;;;;5073230;28;20064;-63
2023/02/13 09:33:16;;;;;;;20.05;14.77;;;;;7.40;100431.00;;;;5074110;28;20048;-61
2023/02/13 09:35:43;;;;;;;23.00;14.27;;;;;7.50;100439.00;;;;5072057;28;20040;-62
2023/02/13 09:38:09;;;;;;;22.17;14.63;;;;;7.50;100439.00;;;;5073410;28;20101;-62
2023/02/13 09:40:55;;;;;;;22.05;14.55;;;;;7.70;100440.00;;;;5072053;28;20110;-62
2023/02/13 09:43:33;;;;;;;20.45;13.93;;;;;7.70;100439.00;;;;5072102;28;20045;-61
2023/02/13 09:46:06;;;;;;;23.92;15.02;;;;;7.80;100440.00;;;;5072812;28;20048;-63
2023/02/13 09:48:36;;;;;;;25.83;14.27;;;;;7.90;100437.00;;;;5073388;28;20085;-64
2023/02/13 09:51:04;;;;;;;21.02;13.48;;;;;8.00;100442.00;;;;5073476;28;20044;-60
2023/02/13 09:53:35;;;;;;;22.92;14.20;;;;;8.00;100437.00;;;;5071599;28;20147;-63
2023/02/13 09:56:09;;;;;;;18.05;12.20;;;;;8.10;100443.00;;;;5072529;28;20547;-62
2023/02/13 09:58:47;;;;;;;24.92;14.27;;;;;8.20;100447.00;;;;5072922;28;20040;-63
2023/02/13 10:01:38;;;;;;;19.95;13.18;;;;;8.30;100448.00;;;;5072763;28;20539;-61
2023/02/13 10:04:33;;;;;;;19.60;12.98;;;;;8.40;100450.00;;;;5072112;28;20493;-64
2023/02/13 10:07:25;;;;;;;19.63;12.65;;;;;8.50;100442.00;;;;5071611;28;20044;-62
2023/02/13 10:10:36;;;;;;;18.95;11.75;;;;;8.60;100450.00;;;;5072752;28;20386;-63
2023/02/13 10:13:15;;;;;;;17.58;11.23;;;;;8.70;100454.00;;;;5040444;28;20056;-63
2023/02/13 10:15:50;;;;;;;17.75;11.43;;;;;8.80;100465.00;;;;5072472;28;20066;-63
2023/02/13 10:18:22;;;;;;;19.75;12.63;;;;;8.80;100456.00;;;;5071556;28;20051;-62
2023/02/13 10:20:59;;;;;;;15.60;10.30;;;;;9.00;100460.00;;;;5072727;28;20051;-63
2023/02/13 10:23:39;;;;;;;16.45;10.25;;;;;9.00;100454.00;;;;5071641;28;20048;-63
2023/02/13 10:26:15;;;;;;;14.73;10.50;;;;;9.10;100453.00;;;;5070648;28;20044;-63
2023/02/13 10:31:47;;;;;;;17.13;10.57;;;;;9.30;100457.00;;;;5072259;28;20067;-63
2023/02/13 10:34:16;;;;;;;16.02;10.77;;;;;9.30;100456.00;;;;5071911;28;20044;-63
2023/02/13 10:36:44;;;;;;;16.10;10.15;;;;;9.40;100458.00;;;;5072530;28;20044;-63
2023/02/13 10:39:22;;;;;;;14.75;9.45;;;;;9.50;100447.00;;;;5072270;28;20037;-63
2023/02/13 10:42:08;;;;;;;12.25;8.77;;;;;9.60;100457.00;;;;5071685;28;20044;-63
2023/02/13 10:44:42;;;;;;;15.48;10.07;;;;;9.80;100449.00;;;;5071527;28;20240;-63
2023/02/13 10:47:43;;;;;;;12.00;8.85;;;;;10.00;100452.00;;;;5072107;28;20048;-62
2023/02/13 10:50:23;;;;;;;13.70;9.20;;;;;10.10;100441.00;;;;5070813;28;20048;-62
2023/02/13 10:52:56;;;;;;;16.65;8.52;;;;;10.20;100444.00;;;;5071939;28;20048;-62
2023/02/13 10:56:00;;;;;;;12.88;8.20;;;;;10.40;100448.00;;;;5071570;28;20040;-60
2023/02/13 10:58:42;;;;;;;17.35;8.20;;;;;10.40;100441.00;;;;5072050;28;20050;-61
2023/02/13 11:01:13;;;;;;;10.07;7.90;;;;;10.40;100431.00;;;;5072188;28;20048;-61
2023/02/13 11:03:40;;;;;;;9.93;7.60;;;;;10.50;100424.00;;;;5072173;28;20095;-61
2023/02/13 11:06:11;;;;;;;9.60;6.60;;;;;10.60;100427.00;;;;5071557;28;20048;-61
2023/02/13 11:08:42;;;;;;;11.30;7.38;;;;;10.70;100430.00;;;;5071815;28;20045;-59
2023/02/13 11:11:34;;;;;;;11.10;6.63;;;;;10.80;100419.00;;;;5072160;28;20041;-60
2023/02/13 11:14:12;;;;;;;8.38;6.05;;;;;10.90;100419.00;;;;5071693;28;20037;-63
2023/02/13 11:16:47;;;;;;;10.25;6.75;;;;;11.00;100426.00;;;;5071782;28;20052;-61
2023/02/13 11:19:21;;;;;;;9.60;6.93;;;;;11.00;100412.00;;;;5070819;28;20493;-62
2023/02/13 11:21:53;;;;;;;12.10;7.30;;;;;11.10;100423.00;;;;5071839;28;20036;-62
2023/02/13 11:24:23;;;;;;;10.82;6.65;;;;;11.20;100423.00;;;;5071383;28;20049;-62
2023/02/13 11:26:53;;;;;;;10.35;6.80;;;;;11.20;100428.00;;;;5071759;28;20040;-61
2023/02/13 11:29:23;;;;;;;9.98;6.78;;;;;11.20;100420.00;;;;5071749;28;20374;-61
2023/02/13 11:32:12;;;;;;;7.18;5.63;;;;;11.20;100426.00;;;;5072206;28;20053;-62
2023/02/13 11:34:40;;;;;;;9.13;6.00;;;;;11.20;100419.00;;;;5069670;28;20508;-62
2023/02/13 11:37:25;;;;;;;8.20;5.75;;;;;11.30;100416.00;;;;5071753;28;20047;-60
2023/02/13 11:39:54;;;;;;;8.60;6.05;;;;;11.30;100410.00;;;;5071917;28;20045;-62
2023/02/13 11:42:26;;;;;;;8.75;5.47;;;;;11.50;100415.00;;;;5071793;28;20052;-61
2023/02/13 11:45:02;;;;;;;10.60;6.75;;;;;11.60;100416.00;;;;5071281;28;20044;-63
2023/02/13 11:47:41;;;;;;;7.97;5.40;;;;;11.60;100414.00;;;;5071780;28;20075;-63
2023/02/13 11:50:21;;;;;;;7.18;5.38;;;;;11.70;100409.00;;;;5071854;28;20504;-62
2023/02/13 11:52:55;;;;;;;7.70;5.30;;;;;11.90;100406.00;;;;5071524;28;20049;-63
2023/02/13 11:55:37;;;;;;;10.50;5.45;;;;;11.90;100413.00;;;;5074273;28;20037;-62
2023/02/13 11:58:09;;;;;;;6.75;4.90;;;;;12.00;100407.00;;;;5075431;28;20099;-61
2023/02/13 12:00:39;;;;;;;7.28;4.88;;;;;11.90;100412.00;;;;5075270;28;20047;-62
2023/02/13 12:03:36;;;;;;;6.13;4.32;;;;;12.00;100415.00;;;;5075077;28;20671;-63
2023/02/13 12:06:14;;;;;;;7.15;5.30;;;;;12.10;100401.00;;;;5061820;28;20056;-62
2023/02/13 12:08:44;;;;;;;8.48;4.97;;;;;12.20;100404.00;;;;5075680;28;20042;-62
2023/02/13 12:11:53;;;;;;;6.43;4.57;;;;;12.20;100404.00;;;;5075575;28;20098;-63
2023/02/13 12:14:23;;;;;;;10.23;5.90;;;;;12.30;100396.00;;;;5012094;28;20072;-60
2023/02/13 12:16:55;;;;;;;8.57;5.60;;;;;12.40;100407.00;;;;5066907;28;20131;-63
2023/02/13 12:19:41;;;;;;;6.53;5.03;;;;;12.40;100406.00;;;;5075014;28;20084;-61
2023/02/13 12:22:21;;;;;;;6.18;4.80;;;;;12.50;100399.00;;;;5074671;28;20048;-61
2023/02/13 12:25:00;;;;;;;6.68;5.00;;;;;12.60;100391.00;;;;5073832;28;20323;-61
2023/02/13 12:27:45;;;;;;;5.13;4.15;;;;;12.60;100397.00;;;;5074353;28;20051;-61
2023/02/13 12:30:30;;;;;;;6.20;4.65;;;;;12.60;100396.00;;;;5074485;28;20101;-60
2023/02/13 12:33:21;;;;;;;5.90;4.97;;;;;12.70;100394.00;;;;5074624;28;20048;-61
2023/02/13 12:36:15;;;;;;;5.93;4.32;;;;;12.70;100394.00;;;;5074151;28;20110;-62
2023/02/13 12:39:10;;;;;;;7.35;4.32;;;;;12.80;100394.00;;;;5074692;28;20086;-62
2023/02/13 12:41:55;;;;;;;5.43;3.70;;;;;12.90;100395.00;;;;5061552;28;20418;-62
2023/02/13 12:44:50;;;;;;;5.82;3.83;;;;;13.00;100394.00;;;;5074040;28;20044;-61
2023/02/13 12:47:25;;;;;;;6.45;4.25;;;;;13.10;100389.00;;;;5074268;28;20044;-61
2023/02/13 12:49:51;;;;;;;4.22;3.58;;;;;13.10;100391.00;;;;5074189;28;20066;-60
2023/02/13 12:52:38;;;;;;;5.35;3.67;;;;;13.10;100394.00;;;;5074065;28;20041;-62
2023/02/13 12:55:26;;;;;;;4.13;3.03;;;;;13.10;100382.00;;;;5073694;28;20101;-61
2023/02/13 12:58:35;;;;;;;5.05;3.42;;;;;13.10;100385.00;;;;5074293;28;20036;-60
2023/02/13 13:01:13;;;;;;;4.60;2.90;;;;;13.20;100376.00;;;;5074489;28;20044;-61
2023/02/13 13:04:17;;;;;;;4.63;3.15;;;;;13.20;100379.00;;;;5074323;28;20064;-62
2023/02/13 13:07:02;;;;;;;3.80;3.30;;;;;13.20;100384.00;;;;5053601;28;20497;-61
2023/02/13 13:09:50;;;;;;;4.57;2.78;;;;;13.20;100374.00;;;;5073875;28;20041;-61
2023/02/13 13:12:33;;;;;;;3.88;2.97;;;;;13.20;100376.00;;;;5073696;28;20044;-62
2023/02/13 13:15:24;;;;;;;4.53;2.75;;;;;13.20;100378.00;;;;5073129;28;20527;-62